sensor_id;sensor_type;location;lat;lon;timestamp;temperature;humidity
39017;DHT22;24784;45.582;5.276;2022-10-16T00:02:02;17.50;99.90
39017;DHT22;24784;45.582;5.276;2022-10-16T00:04:28;17.50;99.90
39017;DHT22;24784;45.582;5.276;2022-10-16T00:06:54;17.30;99.90
39017;DHT22;24784;45.582;5.276;2022-10-16T00:09:23;17.40;99.90
39017;DHT22;24784;45.582;5.276;2022-10-16T00:11:49;17.40;99.90
39017;DHT22;24784;45.582;5.276;2022-10-16T00:14:15;17.30;99.90
39017;DHT22;24784;45.582;5.276;2022-10-16T00:16:41;17.10;99.90
39017;DHT22;24784;45.582;5.276;2022-10-16T00:19:07;17.20;99.90
39017;DHT22;24784;45.582;5.276;2022-10-16T00:21:34;17.10;99.90
39017;DHT22;24784;45.582;5.276;2022-10-16T00:24:05;17.00;99.90
39017;DHT22;24784;45.582;5.276;2022-10-16T00:26:33;17.10;99.90
39017;DHT22;24784;45.582;5.276;2022-10-16T00:28:59;17.20;99.90
39017;DHT22;24784;45.582;5.276;2022-10-16T00:31:25;17.10;99.90
39017;DHT22;24784;45.582;5.276;2022-10-16T00:33:52;17.20;99.90
39017;DHT22;24784;45.582;5.276;2022-10-16T00:36:22;17.20;99.90
39017;DHT22;24784;45.582;5.276;2022-10-16T00:38:51;17.10;99.90
39017;DHT22;24784;45.582;5.276;2022-10-16T00:41:20;17.20;99.90
39017;DHT22;24784;45.582;5.276;2022-10-16T00:43:54;17.20;99.90
39017;DHT22;24784;45.582;5.276;2022-10-16T00:49:02;17.10;99.90
39017;DHT22;24784;45.582;5.276;2022-10-16T00:51:46;17.00;99.90
39017;DHT22;24784;45.582;5.276;2022-10-16T00:54:23;17.00;99.90
39017;DHT22;24784;45.582;5.276;2022-10-16T00:56:50;17.10;99.90
39017;DHT22;24784;45.582;5.276;2022-10-16T00:59:25;17.10;99.90
39017;DHT22;24784;45.582;5.276;2022-10-16T01:01:52;17.00;99.90
39017;DHT22;24784;45.582;5.276;2022-10-16T01:04:19;16.90;99.90
39017;DHT22;24784;45.582;5.276;2022-10-16T01:06:54;16.90;99.90
39017;DHT22;24784;45.582;5.276;2022-10-16T01:12:09;16.80;99.90
39017;DHT22;24784;45.582;5.276;2022-10-16T01:21:03;17.00;99.90
39017;DHT22;24784;45.582;5.276;2022-10-16T01:30:27;17.20;99.90
39017;DHT22;24784;45.582;5.276;2022-10-16T01:32:40;17.10;99.90
39017;DHT22;24784;45.582;5.276;2022-10-16T01:35:32;17.20;99.90
39017;DHT22;24784;45.582;5.276;2022-10-16T01:38:10;17.20;99.90
39017;DHT22;24784;45.582;5.276;2022-10-16T01:40:40;17.20;99.90
39017;DHT22;24784;45.582;5.276;2022-10-16T01:43:12;17.20;99.90
39017;DHT22;24784;45.582;5.276;2022-10-16T01:45:41;17.20;99.90
39017;DHT22;24784;45.582;5.276;2022-10-16T01:48:09;17.10;99.90
39017;DHT22;24784;45.582;5.276;2022-10-16T01:50:39;17.10;99.90
39017;DHT22;24784;45.582;5.276;2022-10-16T01:53:08;17.10;99.90
39017;DHT22;24784;45.582;5.276;2022-10-16T01:55:39;17.10;99.90
39017;DHT22;24784;45.582;5.276;2022-10-16T01:58:08;17.10;99.90
39017;DHT22;24784;45.582;5.276;2022-10-16T02:00:37;17.10;99.90
39017;DHT22;24784;45.582;5.276;2022-10-16T02:03:04;17.10;99.90
39017;DHT22;24784;45.582;5.276;2022-10-16T02:05:38;16.90;99.90
39017;DHT22;24784;45.582;5.276;2022-10-16T02:08:04;16.90;99.90
39017;DHT22;24784;45.582;5.276;2022-10-16T02:10:30;17.00;99.90
39017;DHT22;24784;45.582;5.276;2022-10-16T02:15:38;17.00;99.90
39017;DHT22;24784;45.582;5.276;2022-10-16T02:18:05;17.00;99.90
39017;DHT22;24784;45.582;5.276;2022-10-16T02:20:53;16.90;99.90
39017;DHT22;24784;45.582;5.276;2022-10-16T02:23:42;16.90;99.90
39017;DHT22;24784;45.582;5.276;2022-10-16T02:26:15;16.90;99.90
39017;DHT22;24784;45.582;5.276;2022-10-16T02:28:46;16.80;99.90
39017;DHT22;24784;45.582;5.276;2022-10-16T02:31:16;17.00;99.90
39017;DHT22;24784;45.582;5.276;2022-10-16T02:33:44;16.90;99.90
39017;DHT22;24784;45.582;5.276;2022-10-16T02:36:12;16.80;99.90
39017;DHT22;24784;45.582;5.276;2022-10-16T02:38:39;16.70;99.90
39017;DHT22;24784;45.582;5.276;2022-10-16T02:41:05;16.60;99.90
39017;DHT22;24784;45.582;5.276;2022-10-16T02:43:31;16.50;99.90
39017;DHT22;24784;45.582;5.276;2022-10-16T02:45:59;16.60;99.90
39017;DHT22;24784;45.582;5.276;2022-10-16T02:48:25;16.70;99.90
39017;DHT22;24784;45.582;5.276;2022-10-16T02:50:51;16.60;99.90
39017;DHT22;24784;45.582;5.276;2022-10-16T02:53:17;16.70;99.90
39017;DHT22;24784;45.582;5.276;2022-10-16T02:55:42;16.70;99.90
39017;DHT22;24784;45.582;5.276;2022-10-16T02:58:08;16.70;99.90
39017;DHT22;24784;45.582;5.276;2022-10-16T03:00:34;16.90;99.90
39017;DHT22;24784;45.582;5.276;2022-10-16T03:03:00;16.90;99.90
39017;DHT22;24784;45.582;5.276;2022-10-16T03:05:25;16.70;99.90
39017;DHT22;24784;45.582;5.276;2022-10-16T03:07:51;16.60;99.90
39017;DHT22;24784;45.582;5.276;2022-10-16T03:10:18;16.60;99.90
39017;DHT22;24784;45.582;5.276;2022-10-16T03:12:44;16.60;99.90
39017;DHT22;24784;45.582;5.276;2022-10-16T03:15:09;16.50;99.90
39017;DHT22;24784;45.582;5.276;2022-10-16T03:17:35;16.40;99.90
39017;DHT22;24784;45.582;5.276;2022-10-16T03:20:02;16.40;99.90
39017;DHT22;24784;45.582;5.276;2022-10-16T03:22:28;16.30;99.90
39017;DHT22;24784;45.582;5.276;2022-10-16T03:24:54;16.30;99.90
39017;DHT22;24784;45.582;5.276;2022-10-16T03:27:21;16.30;99.90
39017;DHT22;24784;45.582;5.276;2022-10-16T03:29:46;16.40;99.90
39017;DHT22;24784;45.582;5.276;2022-10-16T03:32:12;16.30;99.90
39017;DHT22;24784;45.582;5.276;2022-10-16T03:34:38;16.40;99.90
39017;DHT22;24784;45.582;5.276;2022-10-16T03:37:04;16.30;99.90
39017;DHT22;24784;45.582;5.276;2022-10-16T03:39:30;16.40;99.90
39017;DHT22;24784;45.582;5.276;2022-10-16T03:41:55;16.50;99.90
39017;DHT22;24784;45.582;5.276;2022-10-16T03:44:21;16.60;99.90
39017;DHT22;24784;45.582;5.276;2022-10-16T03:46:47;16.60;99.90
39017;DHT22;24784;45.582;5.276;2022-10-16T03:49:13;16.70;99.90
39017;DHT22;24784;45.582;5.276;2022-10-16T03:51:39;16.50;99.90
39017;DHT22;24784;45.582;5.276;2022-10-16T03:54:05;16.60;99.90
39017;DHT22;24784;45.582;5.276;2022-10-16T03:56:31;16.50;99.90
39017;DHT22;24784;45.582;5.276;2022-10-16T03:58:56;16.40;99.90
39017;DHT22;24784;45.582;5.276;2022-10-16T04:01:22;16.40;99.90
39017;DHT22;24784;45.582;5.276;2022-10-16T04:03:48;16.30;99.90
39017;DHT22;24784;45.582;5.276;2022-10-16T04:06:14;16.30;99.90
39017;DHT22;24784;45.582;5.276;2022-10-16T04:08:42;16.30;99.90
39017;DHT22;24784;45.582;5.276;2022-10-16T04:11:08;16.30;99.90
39017;DHT22;24784;45.582;5.276;2022-10-16T04:13:34;16.20;99.90
39017;DHT22;24784;45.582;5.276;2022-10-16T04:16:00;16.10;99.90
39017;DHT22;24784;45.582;5.276;2022-10-16T04:18:26;16.10;99.90
39017;DHT22;24784;45.582;5.276;2022-10-16T04:20:53;16.10;99.90
39017;DHT22;24784;45.582;5.276;2022-10-16T04:23:19;15.90;99.90
39017;DHT22;24784;45.582;5.276;2022-10-16T04:25:45;15.90;99.90
39017;DHT22;24784;45.582;5.276;2022-10-16T04:28:11;15.90;99.90
39017;DHT22;24784;45.582;5.276;2022-10-16T04:30:40;16.00;99.90
39017;DHT22;24784;45.582;5.276;2022-10-16T04:33:07;15.80;99.90
39017;DHT22;24784;45.582;5.276;2022-10-16T04:35:33;15.80;99.90
39017;DHT22;24784;45.582;5.276;2022-10-16T04:37:59;15.80;99.90
39017;DHT22;24784;45.582;5.276;2022-10-16T04:40:25;15.80;99.90
39017;DHT22;24784;45.582;5.276;2022-10-16T04:42:51;15.80;99.90
39017;DHT22;24784;45.582;5.276;2022-10-16T04:45:17;15.80;99.90
39017;DHT22;24784;45.582;5.276;2022-10-16T04:47:43;15.70;99.90
39017;DHT22;24784;45.582;5.276;2022-10-16T04:50:08;15.80;99.90
39017;DHT22;24784;45.582;5.276;2022-10-16T04:52:34;15.90;99.90
39017;DHT22;24784;45.582;5.276;2022-10-16T04:55:00;15.90;99.90
39017;DHT22;24784;45.582;5.276;2022-10-16T04:57:29;16.20;99.90
39017;DHT22;24784;45.582;5.276;2022-10-16T04:59:55;16.30;99.90
39017;DHT22;24784;45.582;5.276;2022-10-16T05:02:20;16.30;99.90
39017;DHT22;24784;45.582;5.276;2022-10-16T05:04:46;16.30;99.90
39017;DHT22;24784;45.582;5.276;2022-10-16T05:07:12;16.30;99.90
39017;DHT22;24784;45.582;5.276;2022-10-16T05:09:38;16.30;99.90
39017;DHT22;24784;45.582;5.276;2022-10-16T05:12:04;16.30;99.90
39017;DHT22;24784;45.582;5.276;2022-10-16T05:14:30;16.30;99.90
39017;DHT22;24784;45.582;5.276;2022-10-16T05:16:56;16.30;99.90
39017;DHT22;24784;45.582;5.276;2022-10-16T05:19:22;16.30;99.90
39017;DHT22;24784;45.582;5.276;2022-10-16T05:21:48;16.30;99.90
39017;DHT22;24784;45.582;5.276;2022-10-16T05:24:14;16.30;99.90
39017;DHT22;24784;45.582;5.276;2022-10-16T05:29:05;16.40;99.90
39017;DHT22;24784;45.582;5.276;2022-10-16T05:31:31;16.30;99.90
39017;DHT22;24784;45.582;5.276;2022-10-16T05:34:00;16.20;99.90
39017;DHT22;24784;45.582;5.276;2022-10-16T05:36:26;16.20;99.90
39017;DHT22;24784;45.582;5.276;2022-10-16T05:38:52;16.30;99.90
39017;DHT22;24784;45.582;5.276;2022-10-16T05:41:18;16.40;99.90
39017;DHT22;24784;45.582;5.276;2022-10-16T05:43:52;16.40;99.90
39017;DHT22;24784;45.582;5.276;2022-10-16T05:46:21;16.40;99.90
39017;DHT22;24784;45.582;5.276;2022-10-16T05:48:47;16.30;99.90
39017;DHT22;24784;45.582;5.276;2022-10-16T05:51:14;16.30;99.90
39017;DHT22;24784;45.582;5.276;2022-10-16T05:53:42;16.30;99.90
39017;DHT22;24784;45.582;5.276;2022-10-16T05:56:11;16.30;99.90
39017;DHT22;24784;45.582;5.276;2022-10-16T05:58:38;16.30;99.90
39017;DHT22;24784;45.582;5.276;2022-10-16T06:01:14;16.10;99.90
39017;DHT22;24784;45.582;5.276;2022-10-16T06:03:40;16.00;99.90
39017;DHT22;24784;45.582;5.276;2022-10-16T06:06:20;15.90;99.90
39017;DHT22;24784;45.582;5.276;2022-10-16T06:08:47;15.90;99.90
39017;DHT22;24784;45.582;5.276;2022-10-16T06:11:19;15.90;99.90
39017;DHT22;24784;45.582;5.276;2022-10-16T06:13:55;15.90;99.90
39017;DHT22;24784;45.582;5.276;2022-10-16T06:16:23;16.00;99.90
39017;DHT22;24784;45.582;5.276;2022-10-16T06:18:53;15.90;99.90
39017;DHT22;24784;45.582;5.276;2022-10-16T06:21:25;15.90;99.90
39017;DHT22;24784;45.582;5.276;2022-10-16T06:24:00;15.90;99.90
39017;DHT22;24784;45.582;5.276;2022-10-16T06:26:34;15.80;99.90
39017;DHT22;24784;45.582;5.276;2022-10-16T06:29:06;16.00;99.90
39017;DHT22;24784;45.582;5.276;2022-10-16T06:31:36;15.90;99.90
39017;DHT22;24784;45.582;5.276;2022-10-16T06:34:05;16.00;99.90
39017;DHT22;24784;45.582;5.276;2022-10-16T06:36:39;16.00;99.90
39017;DHT22;24784;45.582;5.276;2022-10-16T06:39:16;15.90;99.90
39017;DHT22;24784;45.582;5.276;2022-10-16T06:41:59;15.80;99.90
39017;DHT22;24784;45.582;5.276;2022-10-16T06:44:33;15.80;99.90
39017;DHT22;24784;45.582;5.276;2022-10-16T06:47:06;15.90;99.90
39017;DHT22;24784;45.582;5.276;2022-10-16T06:49:42;15.90;99.90
39017;DHT22;24784;45.582;5.276;2022-10-16T06:52:21;16.00;99.90
39017;DHT22;24784;45.582;5.276;2022-10-16T06:54:59;15.90;99.90
39017;DHT22;24784;45.582;5.276;2022-10-16T06:57:57;15.70;99.90
39017;DHT22;24784;45.582;5.276;2022-10-16T07:00:23;15.60;99.90
39017;DHT22;24784;45.582;5.276;2022-10-16T07:02:54;15.50;99.90
39017;DHT22;24784;45.582;5.276;2022-10-16T07:05:30;15.50;99.90
39017;DHT22;24784;45.582;5.276;2022-10-16T07:07:56;15.50;99.90
39017;DHT22;24784;45.582;5.276;2022-10-16T07:10:27;15.50;99.90
39017;DHT22;24784;45.582;5.276;2022-10-16T07:16:22;15.50;99.90
39017;DHT22;24784;45.582;5.276;2022-10-16T07:19:08;15.50;99.90
39017;DHT22;24784;45.582;5.276;2022-10-16T07:21:52;15.70;99.90
39017;DHT22;24784;45.582;5.276;2022-10-16T07:27:24;15.70;99.90
39017;DHT22;24784;45.582;5.276;2022-10-16T07:30:39;15.80;99.90
39017;DHT22;24784;45.582;5.276;2022-10-16T07:33:22;15.80;99.90
39017;DHT22;24784;45.582;5.276;2022-10-16T07:41:27;15.70;99.90
39017;DHT22;24784;45.582;5.276;2022-10-16T07:44:30;15.70;99.90
39017;DHT22;24784;45.582;5.276;2022-10-16T07:47:16;15.60;99.90
39017;DHT22;24784;45.582;5.276;2022-10-16T07:50:10;15.70;99.90
39017;DHT22;24784;45.582;5.276;2022-10-16T08:08:19;15.90;99.90
39017;DHT22;24784;45.582;5.276;2022-10-16T08:16:12;16.80;99.90
39017;DHT22;24784;45.582;5.276;2022-10-16T08:21:38;17.40;99.90
39017;DHT22;24784;45.582;5.276;2022-10-16T08:24:48;17.50;99.90
39017;DHT22;24784;45.582;5.276;2022-10-16T09:28:01;21.10;99.70
39017;DHT22;24784;45.582;5.276;2022-10-16T11:42:36;23.20;92.60
39017;DHT22;24784;45.582;5.276;2022-10-16T11:45:39;23.30;93.20
39017;DHT22;24784;45.582;5.276;2022-10-16T11:55:54;23.20;93.20
39017;DHT22;24784;45.582;5.276;2022-10-16T11:58:30;23.20;93.50
39017;DHT22;24784;45.582;5.276;2022-10-16T12:03:56;23.30;93.20
39017;DHT22;24784;45.582;5.276;2022-10-16T12:06:56;23.20;93.70
39017;DHT22;24784;45.582;5.276;2022-10-16T12:09:29;23.10;93.20
39017;DHT22;24784;45.582;5.276;2022-10-16T12:12:24;23.30;92.70
39017;DHT22;24784;45.582;5.276;2022-10-16T12:15:00;23.40;93.30
39017;DHT22;24784;45.582;5.276;2022-10-16T12:17:37;23.40;93.10
39017;DHT22;24784;45.582;5.276;2022-10-16T12:23:24;23.50;92.90
39017;DHT22;24784;45.582;5.276;2022-10-16T12:26:21;23.60;92.70
39017;DHT22;24784;45.582;5.276;2022-10-16T12:40:32;23.90;92.30
39017;DHT22;24784;45.582;5.276;2022-10-16T12:43:10;23.80;92.10
39017;DHT22;24784;45.582;5.276;2022-10-16T12:48:20;23.80;91.80
39017;DHT22;24784;45.582;5.276;2022-10-16T12:50:47;23.90;92.30
39017;DHT22;24784;45.582;5.276;2022-10-16T12:53:26;23.90;92.70
39017;DHT22;24784;45.582;5.276;2022-10-16T12:56:08;23.90;92.10
39017;DHT22;24784;45.582;5.276;2022-10-16T13:04:25;23.90;92.40
39017;DHT22;24784;45.582;5.276;2022-10-16T13:10:17;24.00;93.00
39017;DHT22;24784;45.582;5.276;2022-10-16T13:15:41;23.90;92.70
39017;DHT22;24784;45.582;5.276;2022-10-16T13:18:22;24.00;92.70
39017;DHT22;24784;45.582;5.276;2022-10-16T13:23:35;24.10;92.60
39017;DHT22;24784;45.582;5.276;2022-10-16T13:28:39;24.10;92.90
39017;DHT22;24784;45.582;5.276;2022-10-16T13:31:05;24.10;92.20
39017;DHT22;24784;45.582;5.276;2022-10-16T13:33:41;24.00;92.70
39017;DHT22;24784;45.582;5.276;2022-10-16T13:36:44;23.90;92.60
39017;DHT22;24784;45.582;5.276;2022-10-16T13:41:38;23.90;92.50
39017;DHT22;24784;45.582;5.276;2022-10-16T13:44:04;23.70;92.80
39017;DHT22;24784;45.582;5.276;2022-10-16T13:46:30;23.70;92.40
39017;DHT22;24784;45.582;5.276;2022-10-16T13:49:03;23.80;92.60
39017;DHT22;24784;45.582;5.276;2022-10-16T13:51:30;23.70;93.00
39017;DHT22;24784;45.582;5.276;2022-10-16T13:53:57;23.70;93.10
39017;DHT22;24784;45.582;5.276;2022-10-16T13:56:26;23.70;92.80
39017;DHT22;24784;45.582;5.276;2022-10-16T13:59:20;23.80;92.70
39017;DHT22;24784;45.582;5.276;2022-10-16T14:01:47;23.80;92.60
39017;DHT22;24784;45.582;5.276;2022-10-16T14:04:13;23.80;92.60
39017;DHT22;24784;45.582;5.276;2022-10-16T14:06:46;23.80;92.70
39017;DHT22;24784;45.582;5.276;2022-10-16T14:09:22;23.80;92.50
39017;DHT22;24784;45.582;5.276;2022-10-16T14:11:50;23.70;92.80
39017;DHT22;24784;45.582;5.276;2022-10-16T14:14:18;23.70;93.10
39017;DHT22;24784;45.582;5.276;2022-10-16T14:16:44;23.60;92.90
39017;DHT22;24784;45.582;5.276;2022-10-16T14:19:24;23.60;93.20
39017;DHT22;24784;45.582;5.276;2022-10-16T14:21:51;23.60;93.50
39017;DHT22;24784;45.582;5.276;2022-10-16T14:26:55;23.50;93.40
39017;DHT22;24784;45.582;5.276;2022-10-16T14:29:26;23.50;93.30
39017;DHT22;24784;45.582;5.276;2022-10-16T14:32:01;23.50;92.90
39017;DHT22;24784;45.582;5.276;2022-10-16T14:34:32;23.50;93.20
39017;DHT22;24784;45.582;5.276;2022-10-16T14:37:26;23.50;93.40
39017;DHT22;24784;45.582;5.276;2022-10-16T14:39:53;23.50;93.50
39017;DHT22;24784;45.582;5.276;2022-10-16T14:42:22;23.40;93.90
39017;DHT22;24784;45.582;5.276;2022-10-16T14:44:50;23.40;94.30
39017;DHT22;24784;45.582;5.276;2022-10-16T14:47:20;23.30;94.30
39017;DHT22;24784;45.582;5.276;2022-10-16T14:49:50;23.30;94.50
39017;DHT22;24784;45.582;5.276;2022-10-16T14:52:16;23.10;95.10
39017;DHT22;24784;45.582;5.276;2022-10-16T14:54:42;23.20;94.50
39017;DHT22;24784;45.582;5.276;2022-10-16T14:57:24;23.20;94.60
39017;DHT22;24784;45.582;5.276;2022-10-16T14:59:52;23.10;94.50
39017;DHT22;24784;45.582;5.276;2022-10-16T15:04:47;23.00;94.50
39017;DHT22;24784;45.582;5.276;2022-10-16T15:07:13;23.10;94.30
39017;DHT22;24784;45.582;5.276;2022-10-16T15:20:01;22.90;94.00
39017;DHT22;24784;45.582;5.276;2022-10-16T15:22:26;22.90;93.80
39017;DHT22;24784;45.582;5.276;2022-10-16T15:24:52;22.90;94.10
39017;DHT22;24784;45.582;5.276;2022-10-16T15:27:18;22.80;94.60
39017;DHT22;24784;45.582;5.276;2022-10-16T15:32:24;22.60;94.80
39017;DHT22;24784;45.582;5.276;2022-10-16T15:45:27;22.40;94.90
39017;DHT22;24784;45.582;5.276;2022-10-16T16:11:31;21.70;94.40
39017;DHT22;24784;45.582;5.276;2022-10-16T16:14:06;21.70;94.30
39017;DHT22;24784;45.582;5.276;2022-10-16T16:16:32;21.70;94.20
39017;DHT22;24784;45.582;5.276;2022-10-16T16:19:35;21.80;94.30
39017;DHT22;24784;45.582;5.276;2022-10-16T17:19:08;20.20;99.40
39017;DHT22;24784;45.582;5.276;2022-10-16T17:27:22;20.00;99.90
39017;DHT22;24784;45.582;5.276;2022-10-16T17:30:21;20.00;99.90
39017;DHT22;24784;45.582;5.276;2022-10-16T17:56:30;19.40;99.90
39017;DHT22;24784;45.582;5.276;2022-10-16T18:01:54;19.70;99.90
39017;DHT22;24784;45.582;5.276;2022-10-16T18:17:54;19.30;99.90
39017;DHT22;24784;45.582;5.276;2022-10-16T18:50:14;19.10;99.90
39017;DHT22;24784;45.582;5.276;2022-10-16T19:21:33;19.50;99.90
39017;DHT22;24784;45.582;5.276;2022-10-16T19:32:40;19.60;99.90
39017;DHT22;24784;45.582;5.276;2022-10-16T20:29:38;19.50;99.90
39017;DHT22;24784;45.582;5.276;2022-10-16T20:48:55;19.30;99.90
39017;DHT22;24784;45.582;5.276;2022-10-16T20:51:27;19.30;99.90
39017;DHT22;24784;45.582;5.276;2022-10-16T20:54:04;19.20;99.90
39017;DHT22;24784;45.582;5.276;2022-10-16T20:56:32;19.30;99.90
39017;DHT22;24784;45.582;5.276;2022-10-16T20:58:59;19.30;99.90
39017;DHT22;24784;45.582;5.276;2022-10-16T21:01:26;19.20;99.90
39017;DHT22;24784;45.582;5.276;2022-10-16T21:03:57;19.20;99.90
39017;DHT22;24784;45.582;5.276;2022-10-16T21:06:24;19.20;99.90
39017;DHT22;24784;45.582;5.276;2022-10-16T21:08:50;19.20;99.90
39017;DHT22;24784;45.582;5.276;2022-10-16T21:11:24;19.10;99.90
39017;DHT22;24784;45.582;5.276;2022-10-16T21:13:52;19.10;99.90
39017;DHT22;24784;45.582;5.276;2022-10-16T21:16:18;19.00;99.90
39017;DHT22;24784;45.582;5.276;2022-10-16T21:18:44;19.00;99.90
39017;DHT22;24784;45.582;5.276;2022-10-16T21:21:18;19.00;99.90
39017;DHT22;24784;45.582;5.276;2022-10-16T21:23:44;19.10;99.90
39017;DHT22;24784;45.582;5.276;2022-10-16T21:26:09;19.10;99.90
39017;DHT22;24784;45.582;5.276;2022-10-16T21:28:35;19.00;99.90
39017;DHT22;24784;45.582;5.276;2022-10-16T21:31:14;19.00;99.90
39017;DHT22;24784;45.582;5.276;2022-10-16T21:33:40;19.00;99.90
39017;DHT22;24784;45.582;5.276;2022-10-16T21:38:43;18.90;99.90
39017;DHT22;24784;45.582;5.276;2022-10-16T21:41:28;18.90;99.90
39017;DHT22;24784;45.582;5.276;2022-10-16T21:43:55;18.90;99.90
39017;DHT22;24784;45.582;5.276;2022-10-16T21:46:23;18.90;99.90
39017;DHT22;24784;45.582;5.276;2022-10-16T21:49:00;18.90;99.90
39017;DHT22;24784;45.582;5.276;2022-10-16T21:51:37;18.90;99.90
39017;DHT22;24784;45.582;5.276;2022-10-16T21:54:05;18.90;99.90
39017;DHT22;24784;45.582;5.276;2022-10-16T21:56:32;18.90;99.90
39017;DHT22;24784;45.582;5.276;2022-10-16T21:58:58;18.90;99.90
39017;DHT22;24784;45.582;5.276;2022-10-16T22:01:26;18.80;99.90
39017;DHT22;24784;45.582;5.276;2022-10-16T22:03:52;18.80;99.90
39017;DHT22;24784;45.582;5.276;2022-10-16T22:06:20;18.80;99.90
39017;DHT22;24784;45.582;5.276;2022-10-16T22:08:48;18.80;99.90
39017;DHT22;24784;45.582;5.276;2022-10-16T22:13:42;18.80;99.90
39017;DHT22;24784;45.582;5.276;2022-10-16T22:16:09;18.80;99.90
39017;DHT22;24784;45.582;5.276;2022-10-16T22:18:37;18.60;99.90
39017;DHT22;24784;45.582;5.276;2022-10-16T22:21:05;18.60;99.90
39017;DHT22;24784;45.582;5.276;2022-10-16T22:23:31;18.60;99.90
39017;DHT22;24784;45.582;5.276;2022-10-16T22:26:07;18.60;99.90
39017;DHT22;24784;45.582;5.276;2022-10-16T22:28:34;18.70;99.90
39017;DHT22;24784;45.582;5.276;2022-10-16T22:31:00;18.70;99.90
39017;DHT22;24784;45.582;5.276;2022-10-16T22:33:27;18.60;99.90
39017;DHT22;24784;45.582;5.276;2022-10-16T22:35:52;18.60;99.90
39017;DHT22;24784;45.582;5.276;2022-10-16T22:38:18;18.60;99.90
39017;DHT22;24784;45.582;5.276;2022-10-16T22:40:45;18.60;99.90
39017;DHT22;24784;45.582;5.276;2022-10-16T22:43:11;18.60;99.90
39017;DHT22;24784;45.582;5.276;2022-10-16T22:45:36;18.60;99.90
39017;DHT22;24784;45.582;5.276;2022-10-16T22:48:03;18.60;99.90
39017;DHT22;24784;45.582;5.276;2022-10-16T22:50:29;18.60;99.90
39017;DHT22;24784;45.582;5.276;2022-10-16T22:52:56;18.50;99.90
39017;DHT22;24784;45.582;5.276;2022-10-16T22:55:22;18.50;99.90
39017;DHT22;24784;45.582;5.276;2022-10-16T22:57:47;18.50;99.90
39017;DHT22;24784;45.582;5.276;2022-10-16T23:00:16;18.50;99.90
39017;DHT22;24784;45.582;5.276;2022-10-16T23:02:42;18.50;99.90
39017;DHT22;24784;45.582;5.276;2022-10-16T23:05:09;18.50;99.90
39017;DHT22;24784;45.582;5.276;2022-10-16T23:07:36;18.50;99.90
39017;DHT22;24784;45.582;5.276;2022-10-16T23:10:04;18.50;99.90
39017;DHT22;24784;45.582;5.276;2022-10-16T23:12:30;18.50;99.90
39017;DHT22;24784;45.582;5.276;2022-10-16T23:15:37;18.40;99.90
39017;DHT22;24784;45.582;5.276;2022-10-16T23:21:04;18.30;99.90
39017;DHT22;24784;45.582;5.276;2022-10-16T23:23:33;18.30;99.90
39017;DHT22;24784;45.582;5.276;2022-10-16T23:25:59;18.30;99.90
39017;DHT22;24784;45.582;5.276;2022-10-16T23:28:24;18.40;99.90
39017;DHT22;24784;45.582;5.276;2022-10-16T23:30:53;18.40;99.90
39017;DHT22;24784;45.582;5.276;2022-10-16T23:33:19;18.40;99.90
39017;DHT22;24784;45.582;5.276;2022-10-16T23:35:45;18.40;99.90
39017;DHT22;24784;45.582;5.276;2022-10-16T23:38:10;18.30;99.90
39017;DHT22;24784;45.582;5.276;2022-10-16T23:40:36;18.30;99.90
39017;DHT22;24784;45.582;5.276;2022-10-16T23:43:02;18.40;99.90
39017;DHT22;24784;45.582;5.276;2022-10-16T23:45:28;18.30;99.90
39017;DHT22;24784;45.582;5.276;2022-10-16T23:47:54;18.30;99.90
39017;DHT22;24784;45.582;5.276;2022-10-16T23:50:19;18.40;99.90
39017;DHT22;24784;45.582;5.276;2022-10-16T23:52:45;18.20;99.90
39017;DHT22;24784;45.582;5.276;2022-10-16T23:55:11;18.30;99.90
39017;DHT22;24784;45.582;5.276;2022-10-16T23:57:37;18.30;99.90
